createdAt,value
2018-05-19T00:02:23.402Z,11.66
2018-05-19T00:04:50.794Z,11.73
2018-05-19T00:07:18.186Z,11.76
2018-05-19T00:09:45.579Z,11.82
2018-05-19T00:12:12.963Z,11.85
2018-05-19T00:14:40.350Z,11.88
2018-05-19T00:17:07.743Z,11.90
2018-05-19T00:19:35.136Z,11.85
2018-05-19T00:22:02.568Z,11.87
2018-05-19T00:24:30.129Z,11.84
2018-05-19T00:26:57.562Z,11.87
2018-05-19T00:29:24.964Z,11.88
2018-05-19T00:31:52.355Z,11.81
2018-05-19T00:34:19.739Z,11.76
2018-05-19T00:36:47.128Z,11.78
2018-05-19T00:39:14.514Z,11.73
2018-05-19T00:41:41.907Z,11.64
2018-05-19T00:44:09.286Z,11.59
2018-05-19T00:46:36.683Z,11.56
2018-05-19T00:49:04.071Z,11.50
2018-05-19T00:51:31.467Z,11.50
2018-05-19T00:53:58.850Z,11.41
2018-05-19T00:56:26.247Z,11.33
2018-05-19T00:58:53.635Z,11.27
2018-05-19T01:01:21.023Z,11.26
2018-05-19T01:03:48.414Z,11.22
2018-05-19T01:06:15.805Z,11.17
2018-05-19T01:08:43.239Z,11.15
2018-05-19T01:11:10.631Z,11.17
2018-05-19T01:13:38.023Z,11.11
2018-05-19T01:16:05.410Z,11.10
2018-05-19T01:18:32.802Z,11.08
2018-05-19T01:21:00.194Z,11.02
2018-05-19T01:23:27.586Z,10.98
2018-05-19T01:25:54.979Z,10.97
2018-05-19T01:28:22.370Z,10.96
2018-05-19T01:30:49.774Z,10.92
2018-05-19T01:33:17.159Z,10.89
2018-05-19T01:35:44.555Z,10.89
2018-05-19T01:38:11.943Z,10.86
2018-05-19T01:40:39.336Z,10.82
2018-05-19T01:43:06.987Z,10.76
2018-05-19T01:45:34.378Z,10.73
2018-05-19T01:48:01.763Z,10.68
2018-05-19T01:50:29.167Z,10.66
2018-05-19T01:52:56.551Z,10.61
2018-05-19T01:55:23.947Z,10.61
2018-05-19T01:57:51.331Z,10.56
2018-05-19T02:00:18.719Z,10.48
2018-05-19T02:02:46.115Z,10.43
2018-05-19T02:05:13.507Z,10.43
2018-05-19T02:07:40.900Z,10.43
2018-05-19T02:10:08.287Z,10.37
2018-05-19T02:12:35.679Z,10.36
2018-05-19T02:15:03.078Z,10.38
2018-05-19T02:17:30.467Z,10.32
2018-05-19T02:19:57.872Z,10.22
2018-05-19T02:22:25.255Z,10.28
2018-05-19T02:24:52.652Z,10.23
2018-05-19T02:27:20.045Z,10.17
2018-05-19T02:29:47.431Z,10.13
2018-05-19T02:32:14.823Z,10.13
2018-05-19T02:34:42.210Z,10.17
2018-05-19T02:37:09.602Z,10.14
2018-05-19T02:39:37.035Z,10.14
2018-05-19T02:42:04.422Z,10.09
2018-05-19T02:44:31.891Z,10.11
2018-05-19T02:46:59.295Z,10.12
2018-05-19T02:49:26.675Z,10.00
2018-05-19T02:51:54.063Z,9.97
2018-05-19T02:54:21.441Z,9.93
2018-05-19T02:56:48.902Z,9.95
2018-05-19T02:59:16.295Z,9.91
2018-05-19T03:01:43.696Z,9.84
2018-05-19T03:04:11.139Z,9.79
2018-05-19T03:06:38.526Z,9.79
2018-05-19T03:09:05.915Z,9.83
2018-05-19T03:11:33.309Z,9.74
2018-05-19T03:14:00.801Z,9.71
2018-05-19T03:16:28.194Z,9.74
2018-05-19T03:18:55.583Z,9.71
2018-05-19T03:21:22.963Z,9.65
2018-05-19T03:23:50.355Z,9.65
2018-05-19T03:26:17.734Z,9.62
2018-05-19T03:28:45.136Z,9.59
2018-05-19T03:31:12.503Z,9.55
2018-05-19T03:33:39.887Z,9.51
2018-05-19T03:36:07.319Z,9.42
2018-05-19T03:38:34.659Z,9.42
2018-05-19T03:41:02.045Z,9.44
2018-05-19T03:43:29.433Z,9.42
2018-05-19T03:45:56.816Z,9.46
2018-05-19T03:48:24.399Z,9.40
2018-05-19T03:50:51.734Z,9.44
2018-05-19T03:53:19.123Z,9.39
2018-05-19T03:55:46.719Z,9.35
2018-05-19T03:58:25.726Z,9.22
2018-05-19T04:01:04.823Z,9.23
2018-05-19T04:03:32.229Z,9.19
2018-05-19T04:05:59.612Z,9.29
2018-05-19T04:08:26.991Z,9.36
2018-05-19T04:10:54.378Z,9.39
2018-05-19T04:13:21.769Z,9.43
2018-05-19T04:15:49.151Z,9.47
2018-05-19T04:18:16.542Z,9.41
2018-05-19T04:20:43.939Z,9.45
2018-05-19T04:23:11.315Z,9.45
2018-05-19T04:25:38.702Z,9.48
2018-05-19T04:28:06.088Z,9.51
2018-05-19T04:30:33.467Z,9.56
2018-05-19T04:33:00.895Z,9.51
2018-05-19T04:35:28.283Z,9.54
2018-05-19T04:37:56.378Z,9.68
2018-05-19T04:40:23.738Z,9.80
2018-05-19T04:42:51.142Z,9.94
2018-05-19T04:45:18.527Z,10.01
2018-05-19T04:47:45.915Z,10.07
2018-05-19T04:50:13.306Z,10.22
2018-05-19T04:52:40.697Z,10.31
2018-05-19T04:55:08.075Z,10.38
2018-05-19T04:57:35.466Z,10.16
2018-05-19T05:00:02.858Z,10.25
2018-05-19T05:02:30.262Z,10.37
2018-05-19T05:04:57.647Z,10.34
2018-05-19T05:07:25.048Z,10.34
2018-05-19T05:09:52.435Z,10.39
2018-05-19T05:12:19.902Z,10.34
2018-05-19T05:14:47.294Z,10.30
2018-05-19T05:17:14.704Z,10.43
2018-05-19T05:19:43.378Z,10.42
2018-05-19T05:22:10.716Z,10.53
2018-05-19T05:24:38.115Z,10.80
2018-05-19T05:27:05.583Z,10.84
2018-05-19T05:29:32.894Z,10.79
2018-05-19T05:32:00.282Z,10.97
2018-05-19T05:34:27.695Z,11.05
2018-05-19T05:36:55.078Z,11.00
2018-05-19T05:39:22.466Z,11.10
2018-05-19T05:41:49.856Z,11.11
2018-05-19T05:44:17.242Z,11.21
2018-05-19T05:46:44.735Z,11.30
2018-05-19T05:49:12.131Z,11.41
2018-05-19T05:51:39.524Z,11.50
2018-05-19T05:54:06.919Z,11.49
2018-05-19T05:56:34.331Z,11.55
2018-05-19T05:59:01.720Z,11.60
2018-05-19T06:01:29.106Z,11.78
2018-05-19T06:03:56.498Z,11.76
2018-05-19T06:06:23.993Z,11.70
2018-05-19T06:08:51.271Z,11.59
2018-05-19T06:11:18.663Z,11.69
2018-05-19T06:13:46.055Z,11.84
2018-05-19T06:16:13.443Z,12.01
2018-05-19T06:18:40.903Z,12.05
2018-05-19T06:21:08.219Z,12.04
2018-05-19T06:23:35.607Z,12.11
2018-05-19T06:26:02.994Z,12.17
2018-05-19T06:28:30.378Z,12.22
2018-05-19T06:30:57.766Z,12.32
2018-05-19T06:33:25.164Z,12.17
2018-05-19T06:35:52.552Z,12.20
2018-05-19T06:38:19.944Z,12.32
2018-05-19T06:40:47.334Z,12.51
2018-05-19T06:43:14.727Z,12.50
2018-05-19T06:45:42.111Z,12.64
2018-05-19T06:48:09.549Z,12.57
2018-05-19T06:50:36.907Z,12.55
2018-05-19T06:53:04.290Z,12.69
2018-05-19T06:55:31.723Z,12.79
2018-05-19T06:57:59.125Z,12.86
2018-05-19T07:00:26.510Z,12.96
2018-05-19T07:02:53.900Z,13.11
2018-05-19T07:05:21.314Z,13.12
2018-05-19T07:07:48.704Z,13.09
2018-05-19T07:10:16.106Z,13.17
2018-05-19T07:12:43.495Z,13.37
2018-05-19T07:15:10.966Z,13.53
2018-05-19T07:17:38.321Z,13.56
2018-05-19T07:20:05.694Z,13.64
2018-05-19T07:22:33.082Z,13.67
2018-05-19T07:25:00.479Z,13.74
2018-05-19T07:27:27.890Z,13.83
2018-05-19T07:29:55.282Z,13.95
2018-05-19T07:32:22.663Z,13.97
2018-05-19T07:34:50.063Z,13.87
2018-05-19T07:37:17.447Z,13.95
2018-05-19T07:39:44.838Z,13.90
2018-05-19T07:42:12.242Z,14.05
2018-05-19T07:44:39.636Z,13.92
2018-05-19T07:47:07.031Z,14.16
2018-05-19T07:49:34.407Z,14.20
2018-05-19T07:52:01.799Z,14.37
2018-05-19T07:54:29.201Z,14.62
2018-05-19T07:56:56.594Z,14.76
2018-05-19T07:59:23.983Z,14.92
2018-05-19T08:01:51.374Z,14.67
2018-05-19T08:04:18.785Z,14.73
2018-05-19T08:06:46.154Z,14.78
2018-05-19T08:09:13.545Z,14.94
2018-05-19T08:11:40.933Z,14.73
2018-05-19T08:14:08.331Z,14.83
2018-05-19T08:16:35.771Z,14.88
2018-05-19T08:19:03.169Z,14.99
2018-05-19T08:21:30.552Z,14.91
2018-05-19T08:23:58.009Z,14.91
2018-05-19T08:26:25.395Z,14.88
2018-05-19T08:28:52.790Z,14.96
2018-05-19T08:31:20.181Z,14.96
2018-05-19T08:33:47.575Z,15.01
2018-05-19T08:36:14.978Z,15.10
2018-05-19T08:38:42.426Z,15.18
2018-05-19T08:41:09.874Z,15.33
2018-05-19T08:43:37.244Z,15.14
2018-05-19T08:46:04.635Z,15.21
2018-05-19T08:48:32.059Z,15.41
2018-05-19T08:50:59.486Z,15.49
2018-05-19T08:53:26.970Z,15.69
2018-05-19T08:55:54.352Z,15.75
2018-05-19T08:58:21.748Z,15.87
2018-05-19T09:00:49.178Z,16.17
2018-05-19T09:03:16.562Z,16.57
2018-05-19T09:05:43.987Z,16.69
2018-05-19T09:08:11.449Z,17.24
2018-05-19T09:10:38.905Z,17.59
2018-05-19T09:13:06.314Z,17.74
2018-05-19T09:15:33.746Z,18.28
2018-05-19T09:18:01.142Z,18.58
2018-05-19T09:20:28.633Z,18.78
2018-05-19T09:22:56.022Z,19.03
2018-05-19T09:25:23.504Z,18.61
2018-05-19T09:27:50.932Z,18.26
2018-05-19T09:30:18.527Z,18.14
2018-05-19T09:32:45.948Z,18.22
2018-05-19T09:35:13.335Z,18.19
2018-05-19T09:37:40.729Z,17.97
2018-05-19T09:40:08.179Z,17.90
2018-05-19T09:42:35.570Z,17.89
2018-05-19T09:45:02.968Z,17.38
2018-05-19T09:47:30.436Z,17.01
2018-05-19T09:49:57.813Z,17.14
2018-05-19T09:52:25.238Z,17.38
2018-05-19T09:54:52.622Z,17.81
2018-05-19T09:57:20.076Z,18.10
2018-05-19T09:59:47.464Z,18.50
2018-05-19T10:02:14.935Z,18.11
2018-05-19T10:04:42.334Z,18.10
2018-05-19T10:07:09.730Z,18.37
2018-05-19T10:09:37.120Z,18.15
2018-05-19T10:12:04.570Z,18.17
2018-05-19T10:14:31.960Z,17.89
2018-05-19T10:16:59.397Z,17.72
2018-05-19T10:19:26.780Z,18.02
2018-05-19T10:21:54.199Z,18.49
2018-05-19T10:24:21.611Z,18.87
2018-05-19T10:26:49.100Z,19.05
2018-05-19T10:29:16.482Z,18.71
2018-05-19T10:31:43.868Z,18.74
2018-05-19T10:34:11.347Z,18.50
2018-05-19T10:36:38.734Z,18.81
2018-05-19T10:39:06.155Z,18.77
2018-05-19T10:41:33.598Z,18.69
2018-05-19T10:44:01.000Z,18.66
2018-05-19T10:46:28.414Z,18.38
2018-05-19T10:48:55.875Z,18.49
2018-05-19T10:51:23.324Z,18.64
2018-05-19T10:53:50.737Z,18.81
2018-05-19T10:56:18.151Z,19.43
2018-05-19T10:58:45.542Z,20.25
2018-05-19T11:01:12.935Z,20.99
2018-05-19T11:03:40.350Z,21.82
2018-05-19T11:06:07.736Z,21.80
2018-05-19T11:08:35.168Z,22.11
2018-05-19T11:11:02.551Z,22.54
2018-05-19T11:13:29.938Z,22.93
2018-05-19T11:15:57.364Z,22.28
2018-05-19T11:18:24.742Z,22.46
2018-05-19T11:20:52.150Z,22.63
2018-05-19T11:23:19.537Z,22.09
2018-05-19T11:25:47.028Z,21.41
2018-05-19T11:28:14.311Z,20.56
2018-05-19T11:30:41.710Z,20.24
2018-05-19T11:33:09.135Z,20.18
2018-05-19T11:35:37.165Z,20.12
2018-05-19T11:38:04.666Z,19.92
2018-05-19T11:40:32.062Z,19.87
2018-05-19T11:43:01.184Z,19.57
2018-05-19T11:45:28.639Z,19.53
2018-05-19T11:47:56.027Z,19.72
2018-05-19T11:50:23.418Z,20.17
2018-05-19T11:52:50.810Z,20.00
2018-05-19T11:55:18.214Z,20.07
2018-05-19T11:57:45.603Z,19.96
2018-05-19T12:00:13.003Z,20.05
2018-05-19T12:02:40.474Z,20.03
2018-05-19T12:05:07.911Z,19.74
2018-05-19T12:07:35.310Z,19.50
2018-05-19T12:10:02.697Z,19.81
2018-05-19T12:12:30.087Z,20.62
2018-05-19T12:14:57.482Z,21.40
2018-05-19T12:17:24.868Z,22.05
2018-05-19T12:19:52.255Z,22.65
2018-05-19T12:22:19.651Z,22.82
2018-05-19T12:24:47.043Z,23.42
2018-05-19T12:27:14.440Z,23.43
2018-05-19T12:29:41.823Z,23.61
2018-05-19T12:32:09.219Z,23.77
2018-05-19T12:34:36.607Z,24.03
2018-05-19T12:37:04.011Z,23.94
2018-05-19T12:39:31.547Z,23.79
2018-05-19T12:41:58.927Z,23.59
2018-05-19T12:44:26.321Z,23.28
2018-05-19T12:46:53.927Z,22.88
2018-05-19T12:49:21.318Z,22.57
2018-05-19T12:51:48.709Z,22.48
2018-05-19T12:54:16.094Z,22.58
2018-05-19T12:56:43.490Z,22.79
2018-05-19T12:59:10.886Z,22.92
2018-05-19T13:01:38.357Z,22.48
2018-05-19T13:04:05.671Z,22.25
2018-05-19T13:06:33.063Z,22.14
2018-05-19T13:09:00.458Z,22.23
2018-05-19T13:11:27.854Z,22.44
2018-05-19T13:13:55.250Z,22.58
2018-05-19T13:16:22.642Z,22.63
2018-05-19T13:18:50.035Z,22.90
2018-05-19T13:21:17.422Z,23.36
2018-05-19T13:23:44.810Z,23.45
2018-05-19T13:26:12.202Z,23.78
2018-05-19T13:28:39.595Z,22.85
2018-05-19T13:31:06.979Z,21.96
2018-05-19T13:33:34.371Z,21.40
2018-05-19T13:36:01.771Z,20.74
2018-05-19T13:38:29.158Z,20.32
2018-05-19T13:40:56.551Z,20.94
2018-05-19T13:43:23.935Z,21.64
2018-05-19T13:45:51.330Z,21.88
2018-05-19T13:48:18.715Z,22.04
2018-05-19T13:50:46.102Z,22.11
2018-05-19T13:53:13.497Z,22.15
2018-05-19T13:55:40.886Z,22.17
2018-05-19T13:58:08.288Z,22.12
2018-05-19T14:00:35.901Z,22.19
2018-05-19T14:03:03.303Z,21.90
2018-05-19T14:05:30.694Z,21.49
2018-05-19T14:07:58.083Z,20.83
2018-05-19T14:10:25.474Z,20.72
2018-05-19T14:12:52.862Z,20.77
2018-05-19T14:15:20.261Z,21.13
2018-05-19T14:17:47.655Z,21.17
2018-05-19T14:20:15.035Z,21.35
2018-05-19T14:22:42.435Z,21.46
2018-05-19T14:25:09.815Z,21.62
2018-05-19T14:27:37.226Z,21.66
2018-05-19T14:30:04.607Z,21.79
2018-05-19T14:32:32.007Z,21.78
2018-05-19T14:34:59.390Z,21.70
2018-05-19T14:37:26.775Z,21.57
2018-05-19T14:39:54.173Z,21.38
2018-05-19T14:42:21.563Z,21.33
2018-05-19T14:44:48.965Z,21.26
2018-05-19T14:47:16.352Z,21.37
2018-05-19T14:49:43.744Z,21.51
2018-05-19T14:52:11.134Z,21.40
2018-05-19T14:54:38.914Z,21.45
2018-05-19T14:57:06.306Z,21.24
2018-05-19T14:59:33.686Z,21.01
2018-05-19T15:02:01.151Z,20.91
2018-05-19T15:04:28.553Z,20.56
2018-05-19T15:06:55.934Z,20.45
2018-05-19T15:09:23.327Z,20.65
2018-05-19T15:11:50.723Z,20.78
2018-05-19T15:14:18.110Z,21.05
2018-05-19T15:16:45.503Z,21.08
2018-05-19T15:19:12.891Z,21.07
2018-05-19T15:21:40.292Z,21.15
2018-05-19T15:24:07.690Z,21.15
2018-05-19T15:26:35.074Z,21.07
2018-05-19T15:29:02.467Z,20.92
2018-05-19T15:31:29.859Z,20.85
2018-05-19T15:33:57.255Z,20.69
2018-05-19T15:36:24.675Z,20.79
2018-05-19T15:38:52.081Z,20.94
2018-05-19T15:41:19.467Z,20.75
2018-05-19T15:43:46.862Z,20.53
2018-05-19T15:46:14.253Z,20.38
2018-05-19T15:48:41.643Z,20.54
2018-05-19T15:51:09.031Z,20.58
2018-05-19T15:53:36.434Z,20.43
2018-05-19T15:56:03.911Z,20.64
2018-05-19T15:58:31.223Z,20.79
2018-05-19T16:00:58.616Z,20.81
2018-05-19T16:03:26.011Z,20.48
2018-05-19T16:05:53.401Z,20.26
2018-05-19T16:08:20.798Z,20.29
2018-05-19T16:10:48.194Z,20.33
2018-05-19T16:13:15.583Z,20.25
2018-05-19T16:15:42.978Z,20.38
2018-05-19T16:18:10.366Z,20.51
2018-05-19T16:20:37.759Z,20.57
2018-05-19T16:23:05.147Z,20.65
2018-05-19T16:25:32.534Z,20.67
2018-05-19T16:27:59.926Z,20.67
2018-05-19T16:30:27.319Z,20.73
2018-05-19T16:32:54.706Z,20.49
2018-05-19T16:35:22.096Z,20.28
2018-05-19T16:37:49.475Z,20.37
2018-05-19T16:40:16.870Z,20.22
2018-05-19T16:42:44.265Z,20.28
2018-05-19T16:45:11.663Z,20.28
2018-05-19T16:47:39.047Z,20.26
2018-05-19T16:50:06.434Z,20.33
2018-05-19T16:52:33.828Z,20.23
2018-05-19T16:55:01.237Z,20.30
2018-05-19T16:57:28.632Z,20.41
2018-05-19T16:59:56.007Z,20.45
2018-05-19T17:02:23.403Z,20.47
2018-05-19T17:04:50.786Z,20.42
2018-05-19T17:07:18.182Z,20.28
2018-05-19T17:09:45.567Z,20.34
2018-05-19T17:12:12.964Z,20.24
2018-05-19T17:14:40.355Z,20.17
2018-05-19T17:17:07.779Z,20.21
2018-05-19T17:19:35.162Z,20.17
2018-05-19T17:22:02.657Z,19.73
2018-05-19T17:24:29.944Z,19.81
2018-05-19T17:26:57.331Z,19.70
2018-05-19T17:29:24.722Z,19.64
2018-05-19T17:31:52.144Z,19.66
2018-05-19T17:34:19.522Z,19.62
2018-05-19T17:36:46.931Z,19.67
2018-05-19T17:39:14.396Z,19.81
2018-05-19T17:41:41.717Z,19.76
2018-05-19T17:44:09.111Z,19.84
2018-05-19T17:46:36.494Z,19.74
2018-05-19T17:49:03.891Z,19.71
2018-05-19T17:51:31.275Z,19.66
2018-05-19T17:53:58.670Z,19.68
2018-05-19T17:56:26.063Z,19.69
2018-05-19T17:58:54.112Z,19.60
2018-05-19T18:01:21.491Z,19.64
2018-05-19T18:03:48.883Z,19.51
2018-05-19T18:06:16.270Z,19.31
2018-05-19T18:08:43.659Z,19.30
2018-05-19T18:11:11.055Z,19.20
2018-05-19T18:13:38.455Z,19.07
2018-05-19T18:16:05.841Z,19.05
2018-05-19T18:18:33.239Z,19.03
2018-05-19T18:21:00.644Z,18.87
2018-05-19T18:23:28.501Z,18.80
2018-05-19T18:25:56.269Z,18.87
2018-05-19T18:28:23.793Z,18.67
2018-05-19T18:30:51.169Z,18.53
2018-05-19T18:33:18.574Z,18.44
2018-05-19T18:35:46.074Z,18.37
2018-05-19T18:38:13.355Z,18.33
2018-05-19T18:40:40.832Z,18.24
2018-05-19T18:43:08.282Z,18.19
2018-05-19T18:45:35.714Z,18.14
2018-05-19T18:48:03.174Z,17.99
2018-05-19T18:50:30.595Z,17.95
2018-05-19T18:53:01.140Z,17.93
2018-05-19T18:55:28.598Z,17.83
2018-05-19T18:57:56.088Z,17.74
2018-05-19T19:00:23.479Z,17.63
2018-05-19T19:02:50.891Z,17.47
2018-05-19T19:05:18.385Z,17.40
2018-05-19T19:07:45.778Z,17.33
2018-05-19T19:10:13.178Z,17.25
2018-05-19T19:12:40.576Z,17.17
2018-05-19T19:15:08.162Z,17.14
2018-05-19T19:17:35.658Z,17.07
2018-05-19T19:20:03.117Z,17.00
2018-05-19T19:22:30.675Z,16.86
2018-05-19T19:24:58.111Z,16.83
2018-05-19T19:27:25.514Z,16.77
2018-05-19T19:29:52.890Z,16.75
2018-05-19T19:32:20.307Z,16.61
2018-05-19T19:34:47.774Z,16.70
2018-05-19T19:37:15.206Z,16.68
2018-05-19T19:39:42.606Z,16.60
2018-05-19T19:42:10.199Z,16.60
2018-05-19T19:44:37.583Z,16.48
2018-05-19T19:47:04.970Z,16.32
2018-05-19T19:49:32.364Z,16.30
2018-05-19T19:51:59.755Z,16.27
2018-05-19T19:54:27.179Z,16.24
2018-05-19T19:56:54.571Z,16.13
2018-05-19T19:59:21.988Z,16.00
2018-05-19T20:01:49.358Z,15.93
2018-05-19T20:04:16.743Z,15.95
2018-05-19T20:06:44.131Z,15.95
2018-05-19T20:09:11.523Z,15.87
2018-05-19T20:11:38.927Z,15.93
2018-05-19T20:14:06.347Z,15.81
2018-05-19T20:16:33.715Z,15.71
2018-05-19T20:19:01.238Z,15.67
2018-05-19T20:21:28.627Z,15.66
2018-05-19T20:23:56.027Z,15.59
2018-05-19T20:26:23.538Z,15.61
2018-05-19T20:28:50.923Z,15.57
2018-05-19T20:31:18.332Z,15.53
2018-05-19T20:33:45.754Z,15.54
2018-05-19T20:36:13.150Z,15.43
2018-05-19T20:38:40.540Z,15.43
2018-05-19T20:41:07.968Z,15.36
2018-05-19T20:43:35.398Z,15.36
2018-05-19T20:46:02.771Z,15.30
2018-05-19T20:48:30.184Z,15.28
2018-05-19T20:50:57.562Z,15.36
2018-05-19T20:53:24.946Z,15.38
2018-05-19T20:55:52.351Z,15.35
2018-05-19T20:58:19.735Z,15.40
2018-05-19T21:00:47.302Z,15.40
2018-05-19T21:03:14.683Z,15.42
2018-05-19T21:05:42.067Z,15.48
2018-05-19T21:08:09.468Z,15.53
2018-05-19T21:10:36.857Z,15.49
2018-05-19T21:13:04.250Z,15.48
2018-05-19T21:15:31.637Z,15.47
2018-05-19T21:17:59.030Z,15.54
2018-05-19T21:20:26.423Z,15.51
2018-05-19T21:22:53.822Z,15.49
2018-05-19T21:25:21.212Z,15.41
2018-05-19T21:27:48.709Z,15.33
2018-05-19T21:30:16.042Z,15.30
2018-05-19T21:32:43.434Z,15.27
2018-05-19T21:35:10.822Z,15.33
2018-05-19T21:37:38.211Z,15.35
2018-05-19T21:40:05.603Z,15.27
2018-05-19T21:42:33.042Z,15.27
2018-05-19T21:45:00.448Z,15.25
2018-05-19T21:47:27.958Z,15.22
2018-05-19T21:49:55.421Z,15.17
2018-05-19T21:52:22.751Z,15.11
2018-05-19T21:54:50.139Z,15.13
2018-05-19T21:57:17.532Z,15.15
2018-05-19T21:59:44.963Z,15.14
2018-05-19T22:02:12.498Z,15.04
2018-05-19T22:04:39.882Z,14.99
2018-05-19T22:07:07.274Z,14.93
2018-05-19T22:09:34.659Z,14.91
2018-05-19T22:12:02.051Z,14.92
2018-05-19T22:14:29.439Z,14.89
2018-05-19T22:16:56.830Z,14.85
2018-05-19T22:19:24.235Z,14.77
2018-05-19T22:21:51.619Z,14.71
2018-05-19T22:24:19.020Z,14.68
2018-05-19T22:26:46.404Z,14.67
2018-05-19T22:29:13.798Z,14.56
2018-05-19T22:31:41.198Z,14.54
2018-05-19T22:34:08.583Z,14.50
2018-05-19T22:36:35.983Z,14.47
2018-05-19T22:39:03.370Z,14.45
2018-05-19T22:41:30.751Z,14.38
2018-05-19T22:43:58.247Z,14.37
2018-05-19T22:46:25.635Z,14.33
2018-05-19T22:48:53.015Z,14.27
2018-05-19T22:51:20.410Z,14.27
2018-05-19T22:53:47.795Z,14.19
2018-05-19T22:56:15.258Z,14.15
2018-05-19T22:58:42.646Z,14.14
2018-05-19T23:01:10.039Z,14.17
2018-05-19T23:03:37.423Z,14.12
2018-05-19T23:06:04.823Z,14.14
2018-05-19T23:08:32.202Z,14.13
2018-05-19T23:10:59.590Z,14.03
2018-05-19T23:13:26.978Z,14.00
2018-05-19T23:15:54.383Z,13.95
2018-05-19T23:18:21.783Z,13.99
2018-05-19T23:20:49.169Z,13.97
2018-05-19T23:23:16.554Z,14.03
2018-05-19T23:25:43.942Z,13.99
2018-05-19T23:28:11.339Z,13.98
2018-05-19T23:30:38.739Z,13.92
2018-05-19T23:33:06.123Z,14.02
2018-05-19T23:35:33.515Z,13.91
2018-05-19T23:38:00.899Z,13.86
2018-05-19T23:40:28.300Z,13.90
2018-05-19T23:42:55.691Z,13.83
2018-05-19T23:45:23.903Z,13.74
2018-05-19T23:47:51.301Z,13.73
2018-05-19T23:50:18.687Z,13.77
2018-05-19T23:52:46.087Z,13.72
2018-05-19T23:55:13.482Z,13.76
2018-05-19T23:57:40.875Z,13.78
